createdAt,value
2022-09-10T00:00:30.474Z,21.4
2022-09-10T00:01:32.553Z,21.4
2022-09-10T00:02:34.501Z,21.3
2022-09-10T00:03:36.531Z,21.2
2022-09-10T00:04:38.453Z,21.2
2022-09-10T00:05:40.518Z,21.2
2022-09-10T00:06:42.459Z,21.1
2022-09-10T00:07:44.481Z,21.1
2022-09-10T00:08:46.486Z,21
2022-09-10T00:09:49.561Z,20.8
2022-09-10T00:10:51.518Z,20.8
2022-09-10T00:11:53.466Z,20.8
2022-09-10T00:12:55.469Z,20.7
2022-09-10T00:13:57.472Z,20.7
2022-09-10T00:14:59.658Z,20.7
2022-09-10T00:16:01.574Z,20.7
2022-09-10T00:17:03.503Z,20.7
2022-09-10T00:18:05.472Z,20.7
2022-09-10T00:19:07.499Z,20.6
2022-09-10T00:20:09.485Z,20.6
2022-09-10T00:21:11.504Z,20.7
2022-09-10T00:22:13.487Z,20.7
2022-09-10T00:23:15.483Z,20.7
2022-09-10T00:24:17.517Z,20.7
2022-09-10T00:25:19.485Z,20.7
2022-09-10T00:26:21.485Z,20.8
2022-09-10T00:27:22.548Z,20.8
2022-09-10T00:28:24.486Z,20.8
2022-09-10T00:29:26.489Z,20.9
2022-09-10T00:30:28.551Z,20.9
2022-09-10T00:31:30.589Z,20.8
2022-09-10T00:32:32.542Z,20.8
2022-09-10T00:33:34.521Z,20.7
2022-09-10T00:34:37.160Z,20.8
2022-09-10T00:35:38.527Z,20.8
2022-09-10T00:36:40.514Z,20.9
2022-09-10T00:37:42.558Z,20.8
2022-09-10T00:38:44.496Z,20.8
2022-09-10T00:39:46.583Z,20.7
2022-09-10T00:40:48.515Z,20.6
2022-09-10T00:41:50.509Z,20.5
2022-09-10T00:42:52.503Z,20.5
2022-09-10T00:43:53.582Z,20.6
2022-09-10T00:44:55.548Z,20.6
2022-09-10T00:45:57.565Z,20.6
2022-09-10T00:46:59.515Z,20.5
2022-09-10T00:48:01.589Z,20.4
2022-09-10T00:49:03.569Z,20.4
2022-09-10T00:50:05.572Z,20.3
2022-09-10T00:51:07.517Z,20.3
2022-09-10T00:52:08.560Z,20.2
2022-09-10T00:53:10.523Z,20.1
2022-09-10T00:54:12.560Z,20.1
2022-09-10T00:55:14.542Z,20.1
2022-09-10T00:56:16.565Z,20.2
2022-09-10T00:57:18.775Z,20.3
2022-09-10T00:58:20.535Z,20.4
2022-09-10T00:59:22.545Z,20.5
2022-09-10T01:00:25.639Z,20.5
2022-09-10T01:01:27.591Z,20.5
2022-09-10T01:02:29.572Z,20.5
2022-09-10T01:03:31.550Z,20.4
2022-09-10T01:04:33.544Z,20.5
2022-09-10T01:05:35.590Z,20.4
2022-09-10T01:06:37.622Z,20.3
2022-09-10T01:07:39.603Z,20.3
2022-09-10T01:08:41.582Z,20.3
2022-09-10T01:09:43.560Z,20.3
2022-09-10T01:10:45.610Z,20.3
2022-09-10T01:11:47.577Z,20.3
2022-09-10T01:12:49.589Z,20.3
2022-09-10T01:13:51.559Z,20.2
2022-09-10T01:14:52.559Z,20.2
2022-09-10T01:15:53.657Z,20.2
2022-09-10T01:16:55.572Z,20.3
2022-09-10T01:17:57.628Z,20.4
2022-09-10T01:18:59.594Z,20.4
2022-09-10T01:20:01.615Z,20.4
2022-09-10T01:21:03.601Z,20.5
2022-09-10T01:22:05.573Z,20.6
2022-09-10T01:23:07.604Z,20.6
2022-09-10T01:24:09.572Z,20.7
2022-09-10T01:25:11.571Z,20.6
2022-09-10T01:26:13.600Z,20.6
2022-09-10T01:27:15.598Z,20.7
2022-09-10T01:28:17.611Z,20.6
2022-09-10T01:29:19.588Z,20.6
2022-09-10T01:30:21.602Z,20.5
2022-09-10T01:31:23.317Z,20.5
2022-09-10T01:32:24.595Z,20.4
2022-09-10T01:33:26.631Z,20.4
2022-09-10T01:34:28.615Z,20.3
2022-09-10T01:35:30.588Z,20.3
2022-09-10T01:36:32.622Z,20.3
2022-09-10T01:37:34.683Z,20.4
2022-09-10T01:38:36.617Z,20.4
2022-09-10T01:39:38.690Z,20.5
2022-09-10T01:40:40.609Z,20.5
2022-09-10T01:41:42.642Z,20.6
2022-09-10T01:42:44.629Z,20.7
2022-09-10T01:43:46.605Z,20.8
2022-09-10T01:44:48.623Z,20.8
2022-09-10T01:45:50.640Z,20.9
2022-09-10T01:46:52.670Z,21
2022-09-10T01:47:54.652Z,21.1
2022-09-10T01:48:56.616Z,21.2
2022-09-10T01:49:58.638Z,21.3
2022-09-10T01:51:00.637Z,21.3
2022-09-10T01:52:02.696Z,21.4
2022-09-10T01:53:04.624Z,21.4
2022-09-10T01:54:06.639Z,21.4
2022-09-10T01:55:08.657Z,21.5
2022-09-10T01:56:10.633Z,21.5
2022-09-10T01:57:12.653Z,21.6
2022-09-10T01:58:14.622Z,21.6
2022-09-10T01:59:16.630Z,21.7
2022-09-10T02:00:18.681Z,21.7
2022-09-10T02:01:20.694Z,21.8
2022-09-10T02:02:22.683Z,21.8
2022-09-10T02:03:23.712Z,21.8
2022-09-10T02:04:25.647Z,21.8
2022-09-10T02:05:27.718Z,21.7
2022-09-10T02:06:29.702Z,21.6
2022-09-10T02:07:31.685Z,21.5
2022-09-10T02:08:34.820Z,21.4
2022-09-10T02:09:36.656Z,21.4
2022-09-10T02:10:38.678Z,21.3
2022-09-10T02:11:40.653Z,21.2
2022-09-10T02:12:42.712Z,21.2
2022-09-10T02:13:44.662Z,21.1
2022-09-10T02:14:46.649Z,21.1
2022-09-10T02:15:47.690Z,21.1
2022-09-10T02:16:49.662Z,21.1
2022-09-10T02:17:51.695Z,21
2022-09-10T02:18:54.463Z,20.9
2022-09-10T02:19:55.670Z,20.8
2022-09-10T02:20:57.671Z,20.8
2022-09-10T02:21:59.669Z,20.7
2022-09-10T02:23:01.730Z,20.8
2022-09-10T02:24:03.710Z,20.7
2022-09-10T02:25:05.686Z,20.8
2022-09-10T02:26:07.679Z,20.7
2022-09-10T02:27:09.677Z,20.7
2022-09-10T02:28:11.709Z,20.8
2022-09-10T02:29:13.678Z,20.8
2022-09-10T02:30:15.705Z,20.7
2022-09-10T02:31:17.738Z,20.7
2022-09-10T02:32:19.730Z,20.6
2022-09-10T02:33:21.692Z,20.6
2022-09-10T02:34:23.691Z,20.6
2022-09-10T02:35:25.690Z,20.6
2022-09-10T02:36:27.714Z,20.6
2022-09-10T02:37:29.698Z,20.7
2022-09-10T02:38:31.826Z,20.6
2022-09-10T02:39:34.359Z,20.6
2022-09-10T02:40:35.695Z,20.6
2022-09-10T02:41:37.709Z,20.6
2022-09-10T02:42:39.758Z,20.6
2022-09-10T02:43:41.741Z,20.6
2022-09-10T02:44:43.785Z,20.6
2022-09-10T02:45:45.796Z,20.6
2022-09-10T02:46:47.715Z,20.7
2022-09-10T02:47:49.708Z,20.7
2022-09-10T02:48:51.711Z,20.7
2022-09-10T02:49:53.747Z,20.7
2022-09-10T02:50:55.714Z,20.6
2022-09-10T02:51:57.721Z,20.7
2022-09-10T02:52:59.720Z,20.7
2022-09-10T02:54:01.749Z,20.7
2022-09-10T02:55:03.782Z,20.8
2022-09-10T02:56:05.718Z,20.9
2022-09-10T02:57:06.723Z,20.9
2022-09-10T02:58:08.723Z,20.9
2022-09-10T02:59:09.731Z,20.8
2022-09-10T03:00:12.175Z,20.8
2022-09-10T03:01:13.746Z,20.8
2022-09-10T03:02:15.761Z,20.8
2022-09-10T03:03:17.732Z,20.8
2022-09-10T03:04:19.744Z,20.8
2022-09-10T03:05:21.919Z,20.9
2022-09-10T03:06:23.776Z,20.9
2022-09-10T03:07:25.742Z,20.8
2022-09-10T03:08:27.770Z,20.9
2022-09-10T03:09:29.771Z,20.8
2022-09-10T03:10:31.749Z,20.7
2022-09-10T03:11:33.776Z,20.6
2022-09-10T03:12:35.758Z,20.5
2022-09-10T03:13:37.762Z,20.5
2022-09-10T03:14:39.756Z,20.4
2022-09-10T03:15:41.755Z,20.4
2022-09-10T03:16:43.797Z,20.3
2022-09-10T03:17:45.766Z,20.3
2022-09-10T03:18:47.781Z,20.2
2022-09-10T03:19:49.826Z,20.1
2022-09-10T03:20:51.766Z,20
2022-09-10T03:21:53.767Z,20
2022-09-10T03:22:55.772Z,20
2022-09-10T03:23:57.782Z,20
2022-09-10T03:24:59.829Z,19.9
2022-09-10T03:26:01.816Z,19.9
2022-09-10T03:27:03.771Z,19.8
2022-09-10T03:28:05.775Z,19.8
2022-09-10T03:29:07.772Z,19.9
2022-09-10T03:30:09.836Z,20
2022-09-10T03:31:11.882Z,20.1
2022-09-10T03:32:13.793Z,20.2
2022-09-10T03:33:15.776Z,20.3
2022-09-10T03:34:16.786Z,20.4
2022-09-10T03:35:18.806Z,20.5
2022-09-10T03:36:20.810Z,20.7
2022-09-10T03:37:22.785Z,20.8
2022-09-10T03:38:24.790Z,20.8
2022-09-10T03:39:25.788Z,20.9
2022-09-10T03:40:27.848Z,21
2022-09-10T03:41:29.821Z,21
2022-09-10T03:42:31.851Z,21
2022-09-10T03:43:33.792Z,21
2022-09-10T03:44:35.797Z,21
2022-09-10T03:45:37.868Z,20.9
2022-09-10T03:46:39.808Z,20.9
2022-09-10T03:47:41.832Z,20.9
2022-09-10T03:48:43.863Z,20.9
2022-09-10T03:49:45.828Z,20.9
2022-09-10T03:50:47.809Z,20.9
2022-09-10T03:51:48.823Z,20.8
2022-09-10T03:52:50.812Z,20.8
2022-09-10T03:53:52.879Z,20.7
2022-09-10T03:54:54.827Z,20.7
2022-09-10T03:55:56.834Z,20.7
2022-09-10T03:56:58.819Z,20.7
2022-09-10T03:57:59.818Z,20.8
2022-09-10T03:59:00.863Z,20.8
2022-09-10T04:00:02.872Z,20.8
2022-09-10T04:01:04.907Z,20.8
2022-09-10T04:02:06.867Z,20.8
2022-09-10T04:03:08.828Z,20.7
2022-09-10T04:04:10.836Z,20.7
2022-09-10T04:05:11.835Z,20.7
2022-09-10T04:06:12.868Z,20.7
2022-09-10T04:07:14.833Z,20.7
2022-09-10T04:08:16.837Z,20.7
2022-09-10T04:09:18.835Z,20.6
2022-09-10T04:10:20.835Z,20.7
2022-09-10T04:11:22.914Z,20.6
2022-09-10T04:12:24.830Z,20.5
2022-09-10T04:13:25.868Z,20.5
2022-09-10T04:14:27.866Z,20.4
2022-09-10T04:15:29.883Z,20.3
2022-09-10T04:16:31.924Z,20.4
2022-09-10T04:17:33.845Z,20.4
2022-09-10T04:18:34.865Z,20.4
2022-09-10T04:19:36.893Z,20.3
2022-09-10T04:20:38.903Z,20.2
2022-09-10T04:21:40.925Z,20.1
2022-09-10T04:22:42.904Z,20
2022-09-10T04:23:44.866Z,20
2022-09-10T04:24:46.932Z,20
2022-09-10T04:25:48.862Z,19.9
2022-09-10T04:26:50.927Z,19.9
2022-09-10T04:27:52.865Z,19.9
2022-09-10T04:28:54.866Z,19.9
2022-09-10T04:29:56.158Z,19.9
2022-09-10T04:30:57.862Z,19.8
2022-09-10T04:31:58.956Z,19.8
2022-09-10T04:33:00.881Z,19.9
2022-09-10T04:34:02.900Z,19.9
2022-09-10T04:35:04.902Z,20
2022-09-10T04:36:06.877Z,20
2022-09-10T04:37:08.880Z,20.1
2022-09-10T04:38:09.892Z,20.2
2022-09-10T04:39:11.879Z,20.4
2022-09-10T04:40:12.991Z,20.4
2022-09-10T04:41:14.892Z,20.4
2022-09-10T04:42:16.921Z,20.5
2022-09-10T04:43:18.903Z,20.5
2022-09-10T04:44:20.910Z,20.5
2022-09-10T04:45:22.928Z,20.6
2022-09-10T04:46:24.925Z,20.6
2022-09-10T04:47:26.905Z,20.7
2022-09-10T04:48:27.899Z,20.7
2022-09-10T04:49:28.893Z,20.6
2022-09-10T04:50:29.905Z,20.5
2022-09-10T04:51:31.117Z,20.3
2022-09-10T04:52:32.904Z,20.2
2022-09-10T04:53:34.909Z,20.1
2022-09-10T04:54:36.903Z,20
2022-09-10T04:55:38.907Z,20
2022-09-10T04:56:40.945Z,20
2022-09-10T04:57:42.957Z,20
2022-09-10T04:58:45.389Z,20
2022-09-10T04:59:46.918Z,20
2022-09-10T05:00:48.003Z,20.1
2022-09-10T05:01:49.924Z,20.2
2022-09-10T05:02:51.914Z,20.2
2022-09-10T05:03:53.951Z,20.3
2022-09-10T05:04:55.931Z,20.4
2022-09-10T05:05:57.947Z,20.5
2022-09-10T05:06:59.933Z,20.5
2022-09-10T05:08:01.976Z,20.5
2022-09-10T05:09:03.992Z,20.5
2022-09-10T05:10:05.981Z,20.6
2022-09-10T05:11:07.969Z,20.7
2022-09-10T05:12:09.938Z,20.7
2022-09-10T05:13:10.962Z,20.8
2022-09-10T05:14:11.971Z,20.9
2022-09-10T05:15:13.934Z,20.9
2022-09-10T05:16:14.993Z,20.9
2022-09-10T05:17:16.960Z,20.9
2022-09-10T05:18:18.945Z,20.9
2022-09-10T05:19:19.993Z,20.9
2022-09-10T05:20:21.951Z,20.9
2022-09-10T05:21:23.980Z,20.9
2022-09-10T05:22:29.971Z,21
2022-09-10T05:23:27.954Z,20.9
2022-09-10T05:24:29.957Z,20.9
2022-09-10T05:25:31.998Z,20.8
2022-09-10T05:26:33.985Z,20.9
2022-09-10T05:27:35.960Z,20.9
2022-09-10T05:28:37.084Z,20.9
2022-09-10T05:29:38.969Z,20.9
2022-09-10T05:30:41.025Z,20.9
2022-09-10T05:31:42.997Z,21
2022-09-10T05:32:44.983Z,21
2022-09-10T05:33:47.004Z,21
2022-09-10T05:34:48.964Z,21
2022-09-10T05:35:51.038Z,20.9
2022-09-10T05:36:53.011Z,20.9
2022-09-10T05:37:55.005Z,20.9
2022-09-10T05:38:56.983Z,20.8
2022-09-10T05:39:59.032Z,20.7
2022-09-10T05:41:01.013Z,20.8
2022-09-10T05:42:03.021Z,20.8
2022-09-10T05:43:05.063Z,20.8
2022-09-10T05:44:07.305Z,20.9
2022-09-10T05:45:08.992Z,21
2022-09-10T05:46:11.238Z,21
2022-09-10T05:47:12.996Z,21
2022-09-10T05:48:15.135Z,21.1
2022-09-10T05:49:17.011Z,21.2
2022-09-10T05:50:19.013Z,21.2
2022-09-10T05:51:21.023Z,21.2
2022-09-10T05:52:23.001Z,21.3
2022-09-10T05:53:25.032Z,21.2
2022-09-10T05:54:27.008Z,21.3
2022-09-10T05:55:28.998Z,21.3
2022-09-10T05:56:30.037Z,21.4
2022-09-10T05:57:32.015Z,21.4
2022-09-10T05:58:34.006Z,21.5
2022-09-10T05:59:35.027Z,21.5
2022-09-10T06:00:37.094Z,21.6
2022-09-10T06:01:39.036Z,21.6
2022-09-10T06:02:41.161Z,21.7
2022-09-10T06:03:43.019Z,21.8
2022-09-10T06:04:45.020Z,21.8
2022-09-10T06:05:47.027Z,21.8
2022-09-10T06:06:49.066Z,21.8
2022-09-10T06:07:51.033Z,21.8
2022-09-10T06:08:53.058Z,21.8
2022-09-10T06:09:55.049Z,21.8
2022-09-10T06:10:57.032Z,21.8
2022-09-10T06:11:59.083Z,21.7
2022-09-10T06:13:01.035Z,21.7
2022-09-10T06:14:03.068Z,21.6
2022-09-10T06:15:05.493Z,21.6
2022-09-10T06:16:07.098Z,21.5
2022-09-10T06:17:09.069Z,21.5
2022-09-10T06:18:11.046Z,21.4
2022-09-10T06:19:13.048Z,21.4
2022-09-10T06:20:15.081Z,21.4
2022-09-10T06:21:17.194Z,21.4
2022-09-10T06:22:19.121Z,21.4
2022-09-10T06:23:21.048Z,21.4
2022-09-10T06:24:23.082Z,21.3
2022-09-10T06:25:25.053Z,21.2
2022-09-10T06:26:27.052Z,21.1
2022-09-10T06:27:29.086Z,21.1
2022-09-10T06:28:31.121Z,21.1
2022-09-10T06:29:33.247Z,21.3
2022-09-10T06:30:35.436Z,21.5
2022-09-10T06:31:39.559Z,21.6
2022-09-10T06:32:41.093Z,21.7
2022-09-10T06:33:43.110Z,21.7
2022-09-10T06:34:45.070Z,21.6
2022-09-10T06:35:46.069Z,21.5
2022-09-10T06:36:47.103Z,21.6
2022-09-10T06:37:49.106Z,21.9
2022-09-10T06:38:51.078Z,22.5
2022-09-10T06:39:52.139Z,23.2
2022-09-10T06:40:54.464Z,23.7
2022-09-10T06:41:56.235Z,24.1
2022-09-10T06:42:58.078Z,24.4
2022-09-10T06:43:59.085Z,24.5
2022-09-10T06:45:00.108Z,24.7
2022-09-10T06:46:02.204Z,24.9
2022-09-10T06:47:39.275Z,25.1
2022-09-10T06:48:38.507Z,25.3
2022-09-10T06:49:07.104Z,25.5
2022-09-10T06:50:09.139Z,25.5
2022-09-10T06:51:11.096Z,25.3
2022-09-10T06:52:13.203Z,24.9
2022-09-10T06:53:15.095Z,24.4
2022-09-10T06:54:16.127Z,24
2022-09-10T06:55:18.099Z,24
2022-09-10T06:56:19.106Z,24.2
2022-09-10T06:57:21.190Z,24.4
2022-09-10T06:58:23.107Z,24.4
2022-09-10T06:59:25.111Z,24.2
2022-09-10T07:00:27.135Z,23.8
2022-09-10T07:01:29.184Z,23.4
2022-09-10T07:02:31.257Z,23.1
2022-09-10T07:03:33.121Z,23.1
2022-09-10T07:04:35.127Z,23.1
2022-09-10T07:05:37.156Z,22.9
2022-09-10T07:06:39.120Z,22.9
2022-09-10T07:07:41.770Z,23.2
2022-09-10T07:08:43.136Z,23.4
2022-09-10T07:09:45.120Z,23.5
2022-09-10T07:10:47.147Z,23.4
2022-09-10T07:11:49.138Z,23.4
2022-09-10T07:12:51.179Z,23.2
2022-09-10T07:13:53.144Z,23
2022-09-10T07:14:55.131Z,22.9
2022-09-10T07:15:56.191Z,23.1
2022-09-10T07:16:58.171Z,23.1
2022-09-10T07:18:00.167Z,23
2022-09-10T07:19:02.181Z,23
2022-09-10T07:20:04.216Z,23
2022-09-10T07:21:06.176Z,23
2022-09-10T07:22:08.143Z,23
2022-09-10T07:23:12.709Z,23
2022-09-10T07:24:12.149Z,23.1
2022-09-10T07:25:14.186Z,23.2
2022-09-10T07:26:16.158Z,23.1
2022-09-10T07:27:18.172Z,23.1
2022-09-10T07:28:20.185Z,23.1
2022-09-10T07:29:22.168Z,23.1
2022-09-10T07:30:24.205Z,23.1
2022-09-10T07:31:26.188Z,23.4
2022-09-10T07:32:28.186Z,24.1
2022-09-10T07:33:30.269Z,24.4
2022-09-10T07:34:32.169Z,24.4
2022-09-10T07:35:34.163Z,24.3
2022-09-10T07:36:36.203Z,24.1
2022-09-10T07:37:38.172Z,23.9
2022-09-10T07:38:39.186Z,23.8
2022-09-10T07:39:40.118Z,23.6
2022-09-10T07:40:41.086Z,23.5
2022-09-10T07:41:42.079Z,23.4
2022-09-10T07:42:43.080Z,23.4
2022-09-10T07:43:44.155Z,23.3
2022-09-10T07:44:45.090Z,23.1
2022-09-10T07:45:46.115Z,23
2022-09-10T07:46:47.083Z,23.1
2022-09-10T07:47:48.122Z,23.2
2022-09-10T07:48:49.126Z,23.3
2022-09-10T07:49:50.089Z,23.3
2022-09-10T07:50:51.267Z,23.3
2022-09-10T07:51:56.471Z,23.4
2022-09-10T07:52:54.126Z,23.3
2022-09-10T07:53:55.131Z,23.3
2022-09-10T07:54:56.110Z,23.3
2022-09-10T07:55:57.121Z,23.3
2022-09-10T07:56:58.290Z,23.2
2022-09-10T07:58:00.391Z,23.2
2022-09-10T07:59:01.149Z,23.3
2022-09-10T08:03:27.181Z,23.3
2022-09-10T08:04:28.118Z,23.5
2022-09-10T08:05:29.179Z,23.6
2022-09-10T08:06:31.140Z,23.7
2022-09-10T08:07:32.264Z,23.9
2022-09-10T08:08:34.190Z,24.1
2022-09-10T08:09:36.266Z,24.2
2022-09-10T08:10:38.125Z,24.5
2022-09-10T08:11:39.126Z,25
2022-09-10T08:12:40.135Z,25.4
2022-09-10T08:13:41.150Z,25.5
2022-09-10T08:14:42.297Z,25.7
2022-09-10T08:15:44.220Z,25.9
2022-09-10T08:16:45.148Z,26.2
2022-09-10T08:17:46.141Z,26.5
2022-09-10T08:18:47.172Z,26.7
2022-09-10T08:19:48.169Z,26.5
2022-09-10T08:20:49.181Z,26.3
2022-09-10T08:21:50.148Z,26
2022-09-10T08:22:51.153Z,25.6
2022-09-10T08:23:52.183Z,25.6
2022-09-10T08:24:53.163Z,25.9
2022-09-10T08:25:54.163Z,26
2022-09-10T08:26:55.154Z,26
2022-09-10T08:27:56.157Z,26.1
2022-09-10T08:28:57.201Z,26.3
2022-09-10T08:29:59.158Z,26.6
2022-09-10T08:31:00.234Z,26.7
2022-09-10T08:32:01.236Z,26.8
2022-09-10T08:33:03.381Z,26.9
2022-09-10T08:34:05.456Z,26.9
2022-09-10T08:35:07.180Z,26.8
2022-09-10T08:36:08.174Z,26.7
2022-09-10T08:37:09.175Z,26.4
2022-09-10T08:38:10.180Z,26.2
2022-09-10T08:39:11.244Z,25.9
2022-09-10T08:40:12.252Z,26.1
2022-09-10T08:41:13.181Z,26.5
2022-09-10T08:42:14.182Z,27.1
2022-09-10T08:43:15.230Z,27.7
2022-09-10T08:44:16.223Z,28.2
2022-09-10T08:45:17.195Z,28.7
2022-09-10T08:46:18.191Z,29.3
2022-09-10T08:47:19.188Z,29.6
2022-09-10T08:48:20.192Z,30
2022-09-10T08:49:21.279Z,30.2
2022-09-10T08:50:22.197Z,30.2
2022-09-10T08:51:23.209Z,30.5
2022-09-10T08:52:24.477Z,31
2022-09-10T08:53:26.192Z,31.5
2022-09-10T08:54:26.636Z,32
2022-09-10T08:55:28.204Z,32.6
2022-09-10T08:56:29.213Z,33.1
2022-09-10T08:57:30.197Z,32.8
2022-09-10T08:58:31.211Z,32.3
2022-09-10T08:59:32.257Z,31.8
2022-09-10T09:00:33.254Z,30.9
2022-09-10T09:01:34.280Z,30.2
2022-09-10T09:02:48.146Z,29.9
2022-09-10T09:03:36.223Z,30
2022-09-10T09:04:37.242Z,30
2022-09-10T09:05:38.249Z,29.7
2022-09-10T09:06:39.233Z,29.6
2022-09-10T09:07:41.227Z,29.5
2022-09-10T09:08:42.224Z,29.5
2022-09-10T09:09:43.279Z,29.6
2022-09-10T09:10:44.232Z,29.5
2022-09-10T09:11:45.315Z,29.5
2022-09-10T09:12:46.248Z,29.5
2022-09-10T09:13:47.263Z,29.4
2022-09-10T09:14:48.242Z,29.6
2022-09-10T09:15:49.285Z,30.1
2022-09-10T09:16:50.315Z,30.5
2022-09-10T09:17:51.239Z,31
2022-09-10T09:18:52.244Z,31.4
2022-09-10T09:19:53.268Z,31.5
2022-09-10T09:20:54.244Z,31.2
2022-09-10T09:21:55.277Z,30.8
2022-09-10T09:22:56.257Z,30.2
2022-09-10T09:24:12.531Z,29.5
2022-09-10T09:24:58.365Z,28.9
2022-09-10T09:26:00.271Z,28.3
2022-09-10T09:27:01.290Z,27.8
2022-09-10T09:28:02.280Z,27.3
2022-09-10T09:29:04.264Z,27
2022-09-10T09:30:05.340Z,26.9
2022-09-10T09:31:09.242Z,26.9
2022-09-10T09:32:07.259Z,26.8
2022-09-10T09:34:34.430Z,26.6
2022-09-10T09:35:36.460Z,26.6
2022-09-10T09:36:38.368Z,26.3
2022-09-10T09:37:40.366Z,26.1
2022-09-10T09:38:42.417Z,26.1
2022-09-10T09:39:44.412Z,26.1
2022-09-10T09:40:46.487Z,26.1
2022-09-10T09:41:48.381Z,26.1
2022-09-10T09:42:50.386Z,26.2
2022-09-10T09:43:52.375Z,26.3
2022-09-10T09:44:57.115Z,26.5
2022-09-10T09:45:56.628Z,26.7
2022-09-10T09:46:58.419Z,26.9
2022-09-10T09:48:00.414Z,27
2022-09-10T09:49:02.379Z,27
2022-09-10T09:50:04.445Z,26.9
2022-09-10T09:51:06.500Z,26.8
2022-09-10T09:52:08.408Z,26.7
2022-09-10T09:53:10.433Z,26.5
2022-09-10T09:54:42.735Z,26.2
2022-09-10T09:55:15.657Z,25.9
2022-09-10T09:56:16.446Z,25.7
2022-09-10T09:57:18.404Z,25.6
2022-09-10T09:58:20.933Z,25.6
2022-09-10T09:59:22.436Z,25.5
2022-09-10T10:00:24.444Z,25.4
2022-09-10T10:01:26.461Z,25.2
2022-09-10T10:02:28.498Z,25.1
2022-09-10T10:03:30.420Z,25.2
2022-09-10T10:04:32.418Z,25.3
2022-09-10T10:05:34.446Z,25.3
2022-09-10T10:06:36.481Z,25.5
2022-09-10T10:07:38.428Z,26
2022-09-10T10:08:40.598Z,26.7
2022-09-10T10:09:42.437Z,27.5
2022-09-10T10:10:44.418Z,28
2022-09-10T10:11:46.459Z,28.4
2022-09-10T10:12:48.426Z,28.9
2022-09-10T10:13:50.437Z,29.3
2022-09-10T10:14:52.456Z,29.6
2022-09-10T10:15:54.451Z,30
2022-09-10T10:17:00.519Z,30.2
2022-09-10T10:17:58.444Z,30.4
2022-09-10T10:19:00.514Z,30.4
2022-09-10T10:20:02.636Z,30.3
2022-09-10T10:21:04.444Z,30.1
2022-09-10T10:22:06.520Z,29.6
2022-09-10T10:23:08.446Z,29.1
2022-09-10T10:24:10.697Z,28.8
2022-09-10T10:25:12.468Z,28.5
2022-09-10T10:26:14.645Z,28
2022-09-10T10:27:16.482Z,27.5
2022-09-10T10:28:18.457Z,27
2022-09-10T10:29:20.462Z,26.6
2022-09-10T10:30:22.476Z,26.3
2022-09-10T10:31:24.557Z,26.1
2022-09-10T10:32:26.468Z,26.3
2022-09-10T10:33:28.462Z,26.6
2022-09-10T10:34:30.473Z,27.1
2022-09-10T10:35:32.475Z,27.7
2022-09-10T10:36:34.530Z,28.2
2022-09-10T10:37:36.495Z,28.4
2022-09-10T10:38:38.538Z,28.6
2022-09-10T10:39:40.532Z,28.7
2022-09-10T10:40:42.492Z,28.8
2022-09-10T10:41:44.536Z,29
2022-09-10T10:42:46.477Z,29.3
2022-09-10T10:43:48.482Z,29.4
2022-09-10T10:44:50.478Z,29.3
2022-09-10T10:45:52.548Z,29.4
2022-09-10T10:46:54.559Z,29.3
2022-09-10T10:47:56.494Z,29.2
2022-09-10T10:48:58.489Z,29
2022-09-10T10:50:00.508Z,29
2022-09-10T10:51:02.495Z,29.2
2022-09-10T10:52:04.578Z,29.7
2022-09-10T10:53:06.520Z,30
2022-09-10T10:54:08.692Z,30.2
2022-09-10T10:55:10.555Z,30.4
2022-09-10T10:56:12.507Z,30.6
2022-09-10T10:57:14.603Z,30.9
2022-09-10T10:58:16.566Z,30.8
2022-09-10T10:59:18.557Z,30.8
2022-09-10T11:00:20.514Z,30.8
2022-09-10T11:01:22.629Z,30.8
2022-09-10T11:02:25.548Z,30.7
2022-09-10T11:03:27.543Z,30.4
2022-09-10T11:04:29.545Z,30.1
2022-09-10T11:05:31.525Z,29.7
2022-09-10T11:06:33.667Z,29.4
2022-09-10T11:07:35.529Z,29.1
2022-09-10T11:08:37.665Z,28.7
2022-09-10T11:09:39.551Z,28.5
2022-09-10T11:10:41.645Z,28.6
2022-09-10T11:11:43.547Z,28.8
2022-09-10T11:12:45.541Z,29.1
2022-09-10T11:13:47.594Z,29.4
2022-09-10T11:14:49.548Z,29.8
2022-09-10T11:15:51.613Z,30.3
2022-09-10T11:16:57.929Z,30.6
2022-09-10T11:17:55.542Z,30.6
2022-09-10T11:18:57.622Z,30.6
2022-09-10T11:20:17.443Z,30.6
2022-09-10T11:21:01.558Z,30.6
2022-09-10T11:22:03.589Z,30.6
2022-09-10T11:23:05.547Z,30.5
2022-09-10T11:24:07.590Z,30.1
2022-09-10T11:25:09.596Z,29.9
2022-09-10T11:26:11.553Z,30
2022-09-10T11:27:13.590Z,29.7
2022-09-10T11:28:15.559Z,29.4
2022-09-10T11:29:17.608Z,29
2022-09-10T11:30:19.577Z,28.6
2022-09-10T11:31:21.607Z,28.4
2022-09-10T11:32:24.311Z,28.3
2022-09-10T11:33:25.593Z,28.3
2022-09-10T11:34:27.638Z,28.5
2022-09-10T11:35:29.589Z,28.5
2022-09-10T11:36:31.587Z,28.4
2022-09-10T11:37:33.594Z,28.7
2022-09-10T11:38:35.856Z,29.1
2022-09-10T11:39:37.697Z,29.5
2022-09-10T11:40:39.580Z,29.9
2022-09-10T11:41:41.596Z,30
2022-09-10T11:42:43.602Z,29.8
2022-09-10T11:43:45.591Z,29.6
2022-09-10T11:44:47.615Z,29.4
2022-09-10T11:45:49.591Z,29.4
2022-09-10T11:46:51.602Z,29.4
2022-09-10T11:47:53.589Z,29.5
2022-09-10T11:48:55.594Z,29.4
2022-09-10T11:49:57.630Z,29.2
2022-09-10T11:50:59.629Z,29.3
2022-09-10T11:52:01.600Z,29.7
2022-09-10T11:53:03.616Z,30
2022-09-10T11:54:05.605Z,30.4
2022-09-10T11:55:07.673Z,30.5
2022-09-10T11:56:09.614Z,30.4
2022-09-10T11:57:11.657Z,30.3
2022-09-10T11:58:13.619Z,30.1
2022-09-10T11:59:15.620Z,29.8
2022-09-10T12:00:17.663Z,29.7
2022-09-10T12:01:19.633Z,29.8
2022-09-10T12:02:21.680Z,30
2022-09-10T12:03:23.679Z,30
2022-09-10T12:04:25.623Z,29.9
2022-09-10T12:05:27.650Z,29.8
2022-09-10T12:06:29.640Z,29.9
2022-09-10T12:07:31.669Z,29.8
2022-09-10T12:08:33.629Z,29.7
2022-09-10T12:09:35.637Z,29.6
2022-09-10T12:10:37.698Z,29.5
2022-09-10T12:11:39.636Z,29.7
2022-09-10T12:12:41.670Z,29.9
2022-09-10T12:13:43.674Z,29.9
2022-09-10T12:14:45.650Z,29.7
2022-09-10T12:15:47.692Z,29.7
2022-09-10T12:16:49.645Z,29.7
2022-09-10T12:17:51.649Z,29.8
2022-09-10T12:18:53.691Z,29.6
2022-09-10T12:19:55.656Z,29.3
2022-09-10T12:20:57.684Z,29.1
2022-09-10T12:21:59.669Z,28.9
2022-09-10T12:23:01.660Z,28.7
2022-09-10T12:24:03.687Z,28.6
2022-09-10T12:25:05.665Z,28.5
2022-09-10T12:26:07.691Z,28.4
2022-09-10T12:27:09.679Z,28.4
2022-09-10T12:28:11.666Z,28.4
2022-09-10T12:29:13.706Z,28.4
2022-09-10T12:30:15.663Z,28.4
2022-09-10T12:31:17.840Z,28.2
2022-09-10T12:32:19.681Z,28
2022-09-10T12:33:21.676Z,27.8
2022-09-10T12:34:23.715Z,27.7
2022-09-10T12:35:25.727Z,27.6
2022-09-10T12:36:27.718Z,27.7
2022-09-10T12:37:29.715Z,28.1
2022-09-10T12:38:31.685Z,28.6
2022-09-10T12:39:33.725Z,29
2022-09-10T12:40:35.690Z,29.1
2022-09-10T12:41:37.755Z,29.1
2022-09-10T12:42:39.719Z,29
2022-09-10T12:43:41.895Z,28.7
2022-09-10T12:44:43.727Z,28.4
2022-09-10T12:45:45.713Z,28.2
2022-09-10T12:46:47.742Z,28.2
2022-09-10T12:47:49.699Z,28.1
2022-09-10T12:48:51.701Z,28.2
2022-09-10T12:49:53.734Z,28.1
2022-09-10T12:50:55.712Z,28.1
2022-09-10T12:51:57.757Z,28.1
2022-09-10T12:52:59.708Z,28
2022-09-10T12:54:01.710Z,27.8
2022-09-10T12:55:03.789Z,27.6
2022-09-10T12:56:05.719Z,27.5
2022-09-10T12:57:07.755Z,27.2
2022-09-10T12:58:09.727Z,27.1
2022-09-10T12:59:11.780Z,27.2
2022-09-10T13:00:13.765Z,27.2
2022-09-10T13:01:15.826Z,27.3
2022-09-10T13:02:17.778Z,27.4
2022-09-10T13:03:19.740Z,27.4
2022-09-10T13:04:22.103Z,27.5
2022-09-10T13:05:23.761Z,27.6
2022-09-10T13:06:25.745Z,27.7
2022-09-10T13:10:52.824Z,27.5
2022-09-10T13:11:54.752Z,27.4
2022-09-10T13:12:56.778Z,27.3
2022-09-10T13:14:01.755Z,27.3
2022-09-10T13:15:03.967Z,27.3
2022-09-10T13:16:05.873Z,27.4
2022-09-10T13:17:07.760Z,27.4
2022-09-10T13:18:25.097Z,27.5
2022-09-10T13:19:26.802Z,27.5
2022-09-10T13:20:28.977Z,27.5
2022-09-10T13:21:31.095Z,27.5
2022-09-10T13:22:32.775Z,27.3
2022-09-10T13:23:34.768Z,27.1
2022-09-10T13:24:36.774Z,26.9
2022-09-10T13:25:38.893Z,26.8
2022-09-10T13:26:40.817Z,26.8
2022-09-10T13:27:42.781Z,26.8
2022-09-10T13:28:44.811Z,26.9
2022-09-10T13:29:46.776Z,27
2022-09-10T13:30:48.863Z,27
2022-09-10T13:31:51.059Z,26.9
2022-09-10T13:32:52.789Z,26.8
2022-09-10T13:33:54.817Z,26.8
2022-09-10T13:34:56.805Z,26.8
2022-09-10T13:35:58.798Z,27
2022-09-10T13:37:00.814Z,27
2022-09-10T13:38:02.829Z,27.1
2022-09-10T13:39:05.825Z,27.3
2022-09-10T13:40:07.943Z,27.4
2022-09-10T13:41:09.798Z,27.3
2022-09-10T13:42:11.799Z,27.4
2022-09-10T13:43:13.803Z,27.3
2022-09-10T13:44:15.853Z,27.3
2022-09-10T13:45:17.832Z,27.3
2022-09-10T13:46:19.856Z,27.2
2022-09-10T13:47:21.847Z,27.1
2022-09-10T13:48:23.833Z,27
2022-09-10T13:49:25.814Z,26.9
2022-09-10T13:50:27.872Z,26.8
2022-09-10T13:51:29.810Z,26.7
2022-09-10T13:52:31.810Z,26.8
2022-09-10T13:53:33.834Z,26.8
2022-09-10T13:54:35.829Z,26.8
2022-09-10T13:55:37.886Z,26.8
2022-09-10T13:56:39.837Z,26.8